createdAt,value
2022-11-12T00:00:53.482Z,3.33
2022-11-12T00:03:20.305Z,3.00
2022-11-12T00:05:46.929Z,4.00
2022-11-12T00:08:13.398Z,3.42
2022-11-12T00:10:39.961Z,3.03
2022-11-12T00:13:06.329Z,4.93
2022-11-12T00:15:33.116Z,4.88
2022-11-12T00:17:59.503Z,3.53
2022-11-12T00:20:26.060Z,4.97
2022-11-12T00:22:52.675Z,3.88
2022-11-12T00:25:19.202Z,4.15
2022-11-12T00:27:45.557Z,5.13
2022-11-12T00:30:12.728Z,6.10
2022-11-12T00:32:39.165Z,7.18
2022-11-12T00:35:08.702Z,5.25
2022-11-12T00:37:38.086Z,3.45
2022-11-12T00:40:04.958Z,4.10
2022-11-12T00:42:31.503Z,3.63
2022-11-12T00:44:57.991Z,5.28
2022-11-12T00:47:24.379Z,4.70
2022-11-12T00:49:50.788Z,4.50
2022-11-12T00:52:17.123Z,5.28
2022-11-12T00:54:43.548Z,7.47
2022-11-12T00:57:10.194Z,4.53
2022-11-12T00:59:36.632Z,4.47
2022-11-12T01:02:02.947Z,6.90
2022-11-12T01:04:29.312Z,4.45
2022-11-12T01:06:55.758Z,6.03
2022-11-12T01:09:22.610Z,11.20
2022-11-12T01:11:48.998Z,8.50
2022-11-12T01:14:15.426Z,8.40
2022-11-12T01:16:42.892Z,8.82
2022-11-12T01:19:11.459Z,8.47
2022-11-12T01:21:40.406Z,7.93
2022-11-12T01:24:07.734Z,10.60
2022-11-12T01:26:34.701Z,6.60
2022-11-12T01:29:01.205Z,9.23
2022-11-12T01:31:29.884Z,9.37
2022-11-12T01:33:59.366Z,5.90
2022-11-12T01:36:27.173Z,6.97
2022-11-12T01:38:55.269Z,9.07
2022-11-12T01:41:25.281Z,8.25
2022-11-12T01:44:15.257Z,6.17
2022-11-12T01:47:00.430Z,7.07
2022-11-12T01:49:37.053Z,7.43
2022-11-12T01:52:32.055Z,7.53
2022-11-12T01:55:04.511Z,6.72
2022-11-12T01:57:38.742Z,7.77
2022-11-12T02:00:09.348Z,8.75
2022-11-12T02:02:37.177Z,7.45
2022-11-12T02:05:08.494Z,5.68
2022-11-12T02:07:37.877Z,10.93
2022-11-12T02:10:05.801Z,10.43
2022-11-12T02:12:50.977Z,8.13
2022-11-12T02:15:17.369Z,7.30
2022-11-12T02:17:43.770Z,14.57
2022-11-12T02:20:14.439Z,6.90
2022-11-12T02:22:40.842Z,6.57
2022-11-12T02:25:09.359Z,5.90
2022-11-12T02:27:35.957Z,7.43
2022-11-12T02:30:02.338Z,9.60
2022-11-12T02:32:28.689Z,6.00
2022-11-12T02:34:55.092Z,5.10
2022-11-12T02:37:21.477Z,9.77
2022-11-12T02:39:47.821Z,6.95
2022-11-12T02:42:14.423Z,7.40
2022-11-12T02:44:41.065Z,8.40
2022-11-12T02:47:07.429Z,8.23
2022-11-12T02:49:33.861Z,9.88
2022-11-12T02:52:00.262Z,16.48
2022-11-12T02:54:26.713Z,7.43
2022-11-12T02:56:53.042Z,17.52
2022-11-12T02:59:19.449Z,9.93
2022-11-12T03:01:45.803Z,8.75
2022-11-12T03:04:12.122Z,12.48
2022-11-12T03:06:40.002Z,11.57
2022-11-12T03:09:06.384Z,9.40
2022-11-12T03:11:32.720Z,8.37
2022-11-12T03:13:59.167Z,61.33
2022-11-12T03:16:25.665Z,41.30
2022-11-12T03:18:52.242Z,38.03
2022-11-12T03:21:18.600Z,53.58
2022-11-12T03:23:44.966Z,27.70
2022-11-12T03:26:11.328Z,12.38
2022-11-12T03:28:37.725Z,10.15
2022-11-12T03:31:04.101Z,22.52
2022-11-12T03:33:30.578Z,19.42
2022-11-12T03:35:56.981Z,16.07
2022-11-12T03:38:24.180Z,5.60
2022-11-12T03:40:50.780Z,15.95
2022-11-12T03:43:17.218Z,13.25
2022-11-12T03:45:43.585Z,24.27
2022-11-12T03:48:09.975Z,44.90
2022-11-12T03:50:36.361Z,23.48
2022-11-12T03:53:02.802Z,18.40
2022-11-12T03:55:30.138Z,15.70
2022-11-12T03:57:57.812Z,7.72
2022-11-12T04:00:25.911Z,13.07
2022-11-12T04:02:52.526Z,6.40
2022-11-12T04:05:37.633Z,17.10
2022-11-12T04:08:26.356Z,13.40
2022-11-12T04:10:53.023Z,6.18
2022-11-12T04:13:28.542Z,18.87
2022-11-12T04:16:17.795Z,5.15
2022-11-12T04:19:04.770Z,5.80
2022-11-12T04:21:53.094Z,12.07
2022-11-12T04:24:46.886Z,7.75
2022-11-12T04:27:19.521Z,16.57
2022-11-12T04:30:05.507Z,15.55
2022-11-12T04:32:35.177Z,27.38
2022-11-12T04:35:02.009Z,18.75
2022-11-12T04:37:44.139Z,16.38
2022-11-12T04:40:33.281Z,5.73
2022-11-12T04:43:18.994Z,16.17
2022-11-12T04:45:47.442Z,20.75
2022-11-12T04:48:14.015Z,19.85
2022-11-12T04:50:42.051Z,16.92
2022-11-12T04:53:08.415Z,17.80
2022-11-12T04:55:34.818Z,11.38
2022-11-12T04:58:01.263Z,9.65
2022-11-12T05:00:28.470Z,8.60
2022-11-12T05:02:54.996Z,20.83
2022-11-12T05:05:21.417Z,24.40
2022-11-12T05:07:47.786Z,13.38
2022-11-12T05:10:14.360Z,11.18
2022-11-12T05:12:40.726Z,12.90
2022-11-12T05:15:07.825Z,6.38
2022-11-12T05:17:34.168Z,6.80
2022-11-12T05:20:00.661Z,16.75
2022-11-12T05:22:44.026Z,8.32
2022-11-12T05:25:12.298Z,8.38
2022-11-12T05:27:38.705Z,7.57
2022-11-12T05:30:05.671Z,21.83
2022-11-12T05:32:32.021Z,33.17
2022-11-12T05:34:58.402Z,20.88
2022-11-12T05:37:24.793Z,14.35
2022-11-12T05:39:51.128Z,21.55
2022-11-12T05:42:17.584Z,8.97
2022-11-12T05:44:43.995Z,8.65
2022-11-12T05:47:10.361Z,16.50
2022-11-12T05:49:36.741Z,7.68
2022-11-12T05:52:03.146Z,7.68
2022-11-12T05:54:29.513Z,7.60
2022-11-12T05:56:55.870Z,6.75
2022-11-12T05:59:22.447Z,8.43
2022-11-12T06:01:49.077Z,5.90
2022-11-12T06:04:16.438Z,8.35
2022-11-12T06:06:43.838Z,7.37
2022-11-12T06:09:11.002Z,5.10
2022-11-12T06:11:37.699Z,5.25
2022-11-12T06:14:04.884Z,5.50
2022-11-12T06:16:32.004Z,4.50
2022-11-12T06:18:58.827Z,4.90
2022-11-12T06:21:27.453Z,7.13
2022-11-12T06:23:56.547Z,6.40
2022-11-12T06:26:24.879Z,4.72
2022-11-12T06:28:51.821Z,4.57
2022-11-12T06:31:19.405Z,4.20
2022-11-12T06:33:46.612Z,7.43
2022-11-12T06:36:17.754Z,6.22
2022-11-12T06:38:45.228Z,4.85
2022-11-12T06:41:12.951Z,20.38
2022-11-12T06:43:39.959Z,11.90
2022-11-12T06:46:10.985Z,7.65
2022-11-12T06:48:37.371Z,9.50
2022-11-12T06:51:09.189Z,15.65
2022-11-12T06:53:35.832Z,18.60
2022-11-12T06:56:04.465Z,8.90
2022-11-12T06:58:30.915Z,7.50
2022-11-12T07:00:57.441Z,10.15
2022-11-12T07:03:23.816Z,17.85
2022-11-12T07:05:50.178Z,11.52
2022-11-12T07:08:16.567Z,6.73
2022-11-12T07:10:43.578Z,8.07
2022-11-12T07:13:09.928Z,6.72
2022-11-12T07:15:36.317Z,6.45
2022-11-12T07:18:02.669Z,8.38
2022-11-12T07:20:29.391Z,8.27
2022-11-12T07:23:00.050Z,13.05
2022-11-12T07:25:26.385Z,11.38
2022-11-12T07:27:53.268Z,6.70
2022-11-12T07:30:19.833Z,6.68
2022-11-12T07:32:50.938Z,8.40
2022-11-12T07:35:18.526Z,6.18
2022-11-12T07:37:44.935Z,6.22
2022-11-12T07:40:11.793Z,6.95
2022-11-12T07:42:38.221Z,14.32
2022-11-12T07:45:05.307Z,7.47
2022-11-12T07:47:31.660Z,13.35
2022-11-12T07:49:58.018Z,8.63
2022-11-12T07:52:24.359Z,10.05
2022-11-12T07:54:50.717Z,27.23
2022-11-12T07:57:17.237Z,18.50
2022-11-12T07:59:46.397Z,12.90
2022-11-12T08:02:13.094Z,8.65
2022-11-12T08:04:39.517Z,5.60
2022-11-12T08:07:06.015Z,7.13
2022-11-12T08:09:32.489Z,11.77
2022-11-12T08:11:58.879Z,7.40
2022-11-12T08:14:25.313Z,7.85
2022-11-12T08:16:51.642Z,6.82
2022-11-12T08:19:18.037Z,7.03
2022-11-12T08:21:44.680Z,10.47
2022-11-12T08:24:11.046Z,6.40
2022-11-12T08:26:37.434Z,6.35
2022-11-12T08:29:08.380Z,8.88
2022-11-12T08:31:36.109Z,8.82
2022-11-12T08:34:12.001Z,9.33
2022-11-12T08:36:39.148Z,6.97
2022-11-12T08:39:05.815Z,11.43
2022-11-12T08:41:32.594Z,9.23
2022-11-12T08:44:01.844Z,11.43
2022-11-12T08:46:30.588Z,8.40
2022-11-12T08:48:56.964Z,11.05
2022-11-12T08:51:23.381Z,9.98
2022-11-12T08:53:49.738Z,8.13
2022-11-12T08:56:16.183Z,8.18
2022-11-12T08:58:42.567Z,11.90
2022-11-12T09:01:09.582Z,11.25
2022-11-12T09:03:36.611Z,9.63
2022-11-12T09:06:04.835Z,9.27
2022-11-12T09:08:34.718Z,11.13
2022-11-12T09:11:01.223Z,11.10
2022-11-12T09:13:28.078Z,11.68
2022-11-12T09:15:59.086Z,9.20
2022-11-12T09:18:25.900Z,13.85
2022-11-12T09:20:52.583Z,9.68
2022-11-12T09:23:18.990Z,10.37
2022-11-12T09:25:45.466Z,12.63
2022-11-12T09:28:17.110Z,8.13
2022-11-12T09:30:51.703Z,9.00
2022-11-12T09:33:21.092Z,9.80
2022-11-12T09:35:48.088Z,9.97
2022-11-12T09:38:15.277Z,8.98
2022-11-12T09:40:50.821Z,12.40
2022-11-12T09:43:34.126Z,10.02
2022-11-12T09:46:26.643Z,13.07
2022-11-12T09:48:59.642Z,11.63
2022-11-12T09:51:28.602Z,12.40
2022-11-12T09:53:58.220Z,11.95
2022-11-12T09:56:28.103Z,10.15
2022-11-12T09:58:54.628Z,10.95
2022-11-12T10:01:48.507Z,12.33
2022-11-12T10:04:20.786Z,11.80
2022-11-12T10:07:06.155Z,11.38
2022-11-12T10:09:50.467Z,15.95
2022-11-12T10:12:31.991Z,10.43
2022-11-12T10:15:30.133Z,13.77
2022-11-12T10:18:13.275Z,12.48
2022-11-12T10:20:55.480Z,12.77
2022-11-12T10:23:29.744Z,15.90
2022-11-12T10:25:59.947Z,12.35
2022-11-12T10:28:39.104Z,12.00
2022-11-12T10:31:16.822Z,11.65
2022-11-12T10:33:43.419Z,11.60
2022-11-12T10:36:31.344Z,11.65
2022-11-12T10:38:57.790Z,9.93
2022-11-12T10:41:27.561Z,12.00
2022-11-12T10:43:57.022Z,12.32
2022-11-12T10:46:27.928Z,11.63
2022-11-12T10:48:57.950Z,12.45
2022-11-12T10:51:33.130Z,9.98
2022-11-12T10:54:20.230Z,11.20
2022-11-12T10:56:47.152Z,13.73
2022-11-12T10:59:19.557Z,13.00
2022-11-12T11:01:53.757Z,9.35
2022-11-12T11:04:37.914Z,9.18
2022-11-12T11:07:20.392Z,10.03
2022-11-12T11:09:58.002Z,10.45
2022-11-12T11:12:30.184Z,10.05
2022-11-12T11:15:20.195Z,9.93
2022-11-12T11:17:46.901Z,9.13
2022-11-12T11:20:25.194Z,10.33
2022-11-12T11:22:56.806Z,11.63
2022-11-12T11:25:27.922Z,10.32
2022-11-12T11:28:05.137Z,12.43
2022-11-12T11:30:32.462Z,9.00
2022-11-12T11:33:24.408Z,9.50
2022-11-12T11:36:12.568Z,9.95
2022-11-12T11:38:42.230Z,9.25
2022-11-12T11:41:48.553Z,10.98
2022-11-12T11:44:22.120Z,11.10
2022-11-12T11:47:03.658Z,7.80
2022-11-12T11:49:47.155Z,8.77
2022-11-12T11:52:37.817Z,14.27
2022-11-12T11:55:31.408Z,13.15
2022-11-12T11:58:16.701Z,8.52
2022-11-12T12:00:48.994Z,10.27
2022-11-12T12:03:20.271Z,10.18
2022-11-12T12:06:11.162Z,9.88
2022-11-12T12:09:08.911Z,8.07
2022-11-12T12:11:57.363Z,8.43
2022-11-12T12:14:36.636Z,7.37
2022-11-12T12:17:33.909Z,8.82
2022-11-12T12:20:05.543Z,8.40
2022-11-12T12:22:50.773Z,8.63
2022-11-12T12:25:23.476Z,8.50
2022-11-12T12:28:17.300Z,7.23
2022-11-12T12:30:51.812Z,7.65
2022-11-12T12:33:48.923Z,53.65
2022-11-12T12:36:29.287Z,11.93
2022-11-12T12:39:03.287Z,16.80
2022-11-12T12:41:39.001Z,7.77
2022-11-12T12:44:08.572Z,9.65
2022-11-12T12:46:40.983Z,12.00
2022-11-12T12:49:11.361Z,9.15
2022-11-12T12:51:37.785Z,9.15
2022-11-12T12:54:04.335Z,7.60
2022-11-12T12:56:30.842Z,7.22
2022-11-12T12:59:03.404Z,4.68
2022-11-12T13:01:33.854Z,8.15
2022-11-12T13:04:08.827Z,6.30
2022-11-12T13:06:45.491Z,8.03
2022-11-12T13:09:14.980Z,10.55
2022-11-12T13:12:00.091Z,7.38
2022-11-12T13:14:35.538Z,9.00
2022-11-12T13:17:10.767Z,6.70
2022-11-12T13:19:56.845Z,5.00
2022-11-12T13:22:24.265Z,7.65
2022-11-12T13:25:01.247Z,8.98
2022-11-12T13:27:40.028Z,6.63
2022-11-12T13:30:29.687Z,7.43
2022-11-12T13:33:00.761Z,6.93
2022-11-12T13:35:45.422Z,6.93
2022-11-12T13:38:15.681Z,10.10
2022-11-12T13:40:45.773Z,6.70
2022-11-12T13:43:14.793Z,39.38
2022-11-12T13:46:26.011Z,23.27
2022-11-12T13:48:58.183Z,18.25
2022-11-12T13:51:45.713Z,13.60
2022-11-12T13:54:36.978Z,28.48
2022-11-12T13:57:32.323Z,24.95
2022-11-12T14:00:24.690Z,15.67
2022-11-12T14:02:58.364Z,11.63
2022-11-12T14:05:27.875Z,7.97
2022-11-12T14:08:08.177Z,7.97
2022-11-12T14:10:48.538Z,8.30
2022-11-12T14:13:45.428Z,10.20
2022-11-12T14:16:25.130Z,12.52
2022-11-12T14:19:16.247Z,9.77
2022-11-12T14:21:42.637Z,20.75
2022-11-12T14:24:12.248Z,19.33
2022-11-12T14:26:43.302Z,19.97
2022-11-12T14:29:19.886Z,18.13
2022-11-12T14:31:46.473Z,13.05
2022-11-12T14:34:20.881Z,14.32
2022-11-12T14:36:48.620Z,13.57
2022-11-12T14:39:15.622Z,19.80
2022-11-12T14:41:43.130Z,15.88
2022-11-12T14:44:17.534Z,16.13
2022-11-12T14:46:47.437Z,20.48
2022-11-12T14:49:19.947Z,55.22
2022-11-12T14:51:54.945Z,54.93
2022-11-12T14:54:45.761Z,40.30
2022-11-12T14:57:20.318Z,15.27
2022-11-12T14:59:46.802Z,11.48
2022-11-12T15:02:42.726Z,14.75
2022-11-12T15:05:20.534Z,16.30
2022-11-12T15:08:02.374Z,13.30
2022-11-12T15:10:34.261Z,17.02
2022-11-12T15:13:07.910Z,12.98
2022-11-12T15:15:36.822Z,11.88
2022-11-12T15:18:07.483Z,12.30
2022-11-12T15:20:33.861Z,12.18
2022-11-12T15:23:00.431Z,12.70
2022-11-12T15:25:30.517Z,10.88
2022-11-12T15:28:13.023Z,11.05
2022-11-12T15:30:39.399Z,11.17
2022-11-12T15:33:18.492Z,18.20
2022-11-12T15:35:45.210Z,9.00
2022-11-12T15:38:18.020Z,13.52
2022-11-12T15:40:46.716Z,10.38
2022-11-12T15:43:16.413Z,15.23
2022-11-12T15:45:43.157Z,11.15
2022-11-12T15:48:12.644Z,11.35
2022-11-12T15:50:39.107Z,7.57
2022-11-12T15:53:05.959Z,8.07
2022-11-12T15:55:33.195Z,6.00
2022-11-12T15:57:59.566Z,9.00
2022-11-12T16:00:32.492Z,9.43
2022-11-12T16:03:20.293Z,12.52
2022-11-12T16:05:46.932Z,82.65
2022-11-12T16:08:13.331Z,80.17
2022-11-12T16:10:41.732Z,87.03
2022-11-12T16:13:20.121Z,82.60
2022-11-12T16:15:49.360Z,21.38
2022-11-12T16:18:15.759Z,15.40
2022-11-12T16:20:42.239Z,11.87
2022-11-12T16:23:08.613Z,16.13
2022-11-12T16:25:37.176Z,24.08
2022-11-12T16:28:05.109Z,26.25
2022-11-12T16:30:33.435Z,18.98
2022-11-12T16:33:00.967Z,29.63
2022-11-12T16:35:29.717Z,38.15
2022-11-12T16:37:56.092Z,37.20
2022-11-12T16:40:28.746Z,32.03
2022-11-12T16:42:55.123Z,31.25
2022-11-12T16:45:23.920Z,34.90
2022-11-12T16:47:55.719Z,27.92
2022-11-12T16:50:24.678Z,23.15
2022-11-12T16:52:51.079Z,33.40
2022-11-12T16:55:17.472Z,34.72
2022-11-12T16:57:43.889Z,24.27
2022-11-12T17:00:15.622Z,21.13
2022-11-12T17:02:46.106Z,22.38
2022-11-12T17:05:24.210Z,20.92
2022-11-12T17:07:56.175Z,18.23
2022-11-12T17:10:23.945Z,18.63
2022-11-12T17:12:53.748Z,16.52
2022-11-12T17:15:20.177Z,15.23
2022-11-12T17:17:46.535Z,24.73
2022-11-12T17:20:12.909Z,19.63
2022-11-12T17:22:39.261Z,19.60
2022-11-12T17:25:06.962Z,19.27
2022-11-12T17:27:33.555Z,20.80
2022-11-12T17:29:59.906Z,18.65
2022-11-12T17:32:26.620Z,27.45
2022-11-12T17:34:52.979Z,28.60
2022-11-12T17:37:19.384Z,35.95
2022-11-12T17:39:45.723Z,26.95
2022-11-12T17:42:12.073Z,23.90
2022-11-12T17:44:38.402Z,25.73
2022-11-12T17:47:04.818Z,21.47
2022-11-12T17:49:31.230Z,22.17
2022-11-12T17:51:57.615Z,20.25
2022-11-12T17:54:24.023Z,20.13
2022-11-12T17:56:50.372Z,20.30
2022-11-12T17:59:16.741Z,22.43
2022-11-12T18:01:43.129Z,20.02
2022-11-12T18:04:10.507Z,20.02
2022-11-12T18:06:36.932Z,19.08
2022-11-12T18:09:14.362Z,29.63
2022-11-12T18:11:46.051Z,21.60
2022-11-12T18:14:13.007Z,22.65
2022-11-12T18:16:39.379Z,18.55
2022-11-12T18:19:09.508Z,18.95
2022-11-12T18:21:37.149Z,19.20
2022-11-12T18:24:03.696Z,18.63
2022-11-12T18:26:30.116Z,19.23
2022-11-12T18:28:58.262Z,22.05
2022-11-12T18:31:26.895Z,20.15
2022-11-12T18:33:53.912Z,20.98
2022-11-12T18:36:26.258Z,20.17
2022-11-12T18:38:54.741Z,17.60
2022-11-12T18:41:25.622Z,17.30
2022-11-12T18:43:53.312Z,19.08
2022-11-12T18:46:19.728Z,21.83
2022-11-12T18:48:47.285Z,23.80
2022-11-12T18:51:16.324Z,19.50
2022-11-12T18:53:43.520Z,20.55
2022-11-12T18:56:15.983Z,22.17
2022-11-12T18:58:42.387Z,19.55
2022-11-12T19:01:12.639Z,12.23
2022-11-12T19:03:39.279Z,20.45
2022-11-12T19:06:06.535Z,17.70
2022-11-12T19:08:33.719Z,18.25
2022-11-12T19:11:02.074Z,22.23
2022-11-12T19:13:28.682Z,17.43
2022-11-12T19:16:02.021Z,18.50
2022-11-12T19:18:28.713Z,14.02
2022-11-12T19:21:03.352Z,12.80
2022-11-12T19:23:30.404Z,14.35
2022-11-12T19:25:59.328Z,16.70
2022-11-12T19:28:26.137Z,9.27
2022-11-12T19:30:52.770Z,12.52
2022-11-12T19:33:19.236Z,7.95
2022-11-12T19:35:45.622Z,10.25
2022-11-12T19:38:12.082Z,7.43
2022-11-12T19:40:38.498Z,6.53
2022-11-12T19:43:04.834Z,8.93
2022-11-12T19:45:31.252Z,10.00
2022-11-12T19:47:57.588Z,9.25
2022-11-12T19:50:24.964Z,12.03
2022-11-12T19:52:54.769Z,10.68
2022-11-12T19:55:21.183Z,11.50
2022-11-12T19:57:47.555Z,9.68
2022-11-12T20:00:14.426Z,18.23
2022-11-12T20:02:40.951Z,9.27
2022-11-12T20:05:08.628Z,9.40
2022-11-12T20:07:35.015Z,11.63
2022-11-12T20:10:01.593Z,10.15
2022-11-12T20:12:29.888Z,9.40
2022-11-12T20:14:56.373Z,11.13
2022-11-12T20:17:22.710Z,15.48
2022-11-12T20:19:49.048Z,10.07
2022-11-12T20:22:15.430Z,9.63
2022-11-12T20:24:41.785Z,8.52
2022-11-12T20:27:08.121Z,7.23
2022-11-12T20:29:34.460Z,10.18
2022-11-12T20:32:00.804Z,8.68
2022-11-12T20:34:27.161Z,6.38
2022-11-12T20:36:54.894Z,6.45
2022-11-12T20:39:21.474Z,7.73
2022-11-12T20:41:48.720Z,9.23
2022-11-12T20:44:15.070Z,12.20
2022-11-12T20:46:41.425Z,9.07
2022-11-12T20:49:08.650Z,10.63
2022-11-12T20:51:35.911Z,8.47
2022-11-12T20:54:03.485Z,9.10
2022-11-12T20:56:31.217Z,7.78
2022-11-12T20:58:59.004Z,9.88
2022-11-12T21:01:27.096Z,9.25
2022-11-12T21:03:53.767Z,11.37
2022-11-12T21:06:23.562Z,7.80
2022-11-12T21:08:50.579Z,9.23
2022-11-12T21:11:22.853Z,9.52
2022-11-12T21:13:49.872Z,7.80
2022-11-12T21:16:16.514Z,7.27
2022-11-12T21:18:43.747Z,11.90
2022-11-12T21:21:13.789Z,8.48
2022-11-12T21:23:43.491Z,10.32
2022-11-12T21:26:15.113Z,7.15
2022-11-12T21:28:46.505Z,6.83
2022-11-12T21:31:15.837Z,7.60
2022-11-12T21:33:42.470Z,6.00
2022-11-12T21:36:14.848Z,6.15
2022-11-12T21:38:42.858Z,6.07
2022-11-12T21:41:12.291Z,6.30
2022-11-12T21:43:40.618Z,6.68
2022-11-12T21:46:14.575Z,10.88
2022-11-12T21:48:41.360Z,12.05
2022-11-12T21:51:13.022Z,7.78
2022-11-12T21:53:40.673Z,12.23
2022-11-12T21:56:12.589Z,17.20
2022-11-12T21:58:39.946Z,18.15
2022-11-12T22:01:27.271Z,24.33
2022-11-12T22:03:55.145Z,14.75
2022-11-12T22:06:23.852Z,13.47
2022-11-12T22:08:55.367Z,12.18
2022-11-12T22:11:22.364Z,12.48
2022-11-12T22:13:48.842Z,13.20
2022-11-12T22:16:23.282Z,10.95
2022-11-12T22:18:52.011Z,8.80
2022-11-12T22:21:21.572Z,12.25
2022-11-12T22:23:48.195Z,11.38
2022-11-12T22:26:20.688Z,8.57
2022-11-12T22:28:47.611Z,11.90
2022-11-12T22:31:19.612Z,25.43
2022-11-12T22:33:46.629Z,20.33
2022-11-12T22:36:18.403Z,18.45
2022-11-12T22:38:47.086Z,14.30
2022-11-12T22:41:16.142Z,18.77
2022-11-12T22:43:43.065Z,34.23
2022-11-12T22:46:15.209Z,15.10
2022-11-12T22:48:41.632Z,12.18
2022-11-12T22:51:13.405Z,14.27
2022-11-12T22:53:39.951Z,14.70
2022-11-12T22:56:12.146Z,16.03
2022-11-12T22:58:40.044Z,11.82
2022-11-12T23:01:09.342Z,17.70
2022-11-12T23:03:36.606Z,16.50
2022-11-12T23:06:05.404Z,23.10
2022-11-12T23:08:32.331Z,20.57
2022-11-12T23:11:06.532Z,26.42
2022-11-12T23:13:33.254Z,25.08
2022-11-12T23:16:00.051Z,18.38
2022-11-12T23:18:26.736Z,14.88
2022-11-12T23:20:53.520Z,13.13
2022-11-12T23:23:19.951Z,10.48
2022-11-12T23:25:46.466Z,12.65
2022-11-12T23:28:12.847Z,11.85
2022-11-12T23:30:39.331Z,12.75
2022-11-12T23:33:05.715Z,11.53
2022-11-12T23:35:32.108Z,11.70
2022-11-12T23:37:58.535Z,10.55
2022-11-12T23:40:30.652Z,8.65
2022-11-12T23:42:57.410Z,12.02
2022-11-12T23:45:23.801Z,11.17
2022-11-12T23:47:50.272Z,8.90
2022-11-12T23:50:16.734Z,26.58
2022-11-12T23:52:43.238Z,7.40
2022-11-12T23:55:09.587Z,6.78
2022-11-12T23:57:35.997Z,6.57
